createdAt,value
2023-04-09T00:02:15.016Z,7.78
2023-04-09T00:05:01.823Z,9.95
2023-04-09T00:07:47.274Z,8.68
2023-04-09T00:10:32.796Z,8.75
2023-04-09T00:13:25.278Z,7.63
2023-04-09T00:16:17.624Z,10.85
2023-04-09T00:19:02.964Z,7.43
2023-04-09T00:21:48.500Z,11.50
2023-04-09T00:24:34.218Z,10.00
2023-04-09T00:27:19.591Z,10.30
2023-04-09T00:30:05.905Z,5.63
2023-04-09T00:32:51.646Z,7.03
2023-04-09T00:35:37.063Z,10.10
2023-04-09T00:38:22.471Z,5.93
2023-04-09T00:41:08.167Z,10.02
2023-04-09T00:43:56.893Z,8.02
2023-04-09T00:46:42.547Z,10.63
2023-04-09T00:49:27.976Z,7.07
2023-04-09T00:52:13.657Z,6.78
2023-04-09T00:55:01.536Z,11.32
2023-04-09T00:57:47.053Z,9.70
2023-04-09T01:00:32.571Z,14.60
2023-04-09T01:03:18.154Z,13.30
2023-04-09T01:06:22.194Z,19.30
2023-04-09T01:09:21.895Z,13.07
2023-04-09T01:12:12.242Z,11.02
2023-04-09T01:15:09.885Z,28.05
2023-04-09T01:18:13.660Z,13.88
2023-04-09T01:21:10.052Z,19.33
2023-04-09T01:24:26.389Z,10.32
2023-04-09T01:27:13.069Z,24.40
2023-04-09T01:30:09.671Z,14.02
2023-04-09T01:32:57.419Z,9.88
2023-04-09T01:35:46.048Z,7.07
2023-04-09T01:38:33.202Z,17.60
2023-04-09T01:41:21.805Z,11.77
2023-04-09T01:44:08.537Z,5.82
2023-04-09T01:46:55.199Z,12.85
2023-04-09T01:49:41.717Z,9.88
2023-04-09T01:52:27.362Z,10.75
2023-04-09T01:55:13.006Z,12.32
2023-04-09T01:57:58.277Z,8.10
2023-04-09T02:00:47.850Z,14.60
2023-04-09T02:03:45.236Z,9.73
2023-04-09T02:06:44.421Z,14.63
2023-04-09T02:09:31.787Z,14.40
2023-04-09T02:12:19.199Z,10.63
2023-04-09T02:15:07.358Z,6.22
2023-04-09T02:17:53.615Z,16.85
2023-04-09T02:20:39.085Z,10.07
2023-04-09T02:23:25.462Z,9.77
2023-04-09T02:26:10.760Z,12.48
2023-04-09T02:28:56.496Z,9.32
2023-04-09T02:31:41.890Z,11.98
2023-04-09T02:34:27.781Z,9.98
2023-04-09T02:37:13.260Z,8.30
2023-04-09T02:39:58.518Z,11.93
2023-04-09T02:42:43.989Z,8.35
2023-04-09T02:45:29.416Z,15.23
2023-04-09T02:48:14.921Z,10.65
2023-04-09T02:51:04.581Z,8.73
2023-04-09T02:53:50.271Z,8.07
2023-04-09T02:56:35.719Z,9.10
2023-04-09T02:59:21.257Z,11.90
2023-04-09T03:02:07.063Z,14.88
2023-04-09T03:04:53.151Z,16.17
2023-04-09T03:07:38.944Z,17.50
2023-04-09T03:10:24.239Z,13.82
2023-04-09T03:13:09.484Z,17.02
2023-04-09T03:15:56.732Z,20.05
2023-04-09T03:18:42.106Z,12.82
2023-04-09T03:21:28.085Z,11.80
2023-04-09T03:24:13.399Z,15.13
2023-04-09T03:26:59.879Z,11.45
2023-04-09T03:29:45.891Z,12.15
2023-04-09T03:32:32.777Z,13.35
2023-04-09T03:35:18.766Z,9.18
2023-04-09T03:38:05.504Z,7.57
2023-04-09T03:40:51.308Z,11.40
2023-04-09T03:43:36.880Z,15.50
2023-04-09T03:46:23.065Z,9.55
2023-04-09T03:49:08.501Z,10.05
2023-04-09T03:52:00.649Z,8.02
2023-04-09T03:54:53.551Z,8.63
2023-04-09T03:57:42.540Z,18.20
2023-04-09T04:00:32.372Z,12.30
2023-04-09T04:03:47.231Z,12.05
2023-04-09T04:06:41.483Z,14.90
2023-04-09T04:09:46.876Z,11.27
2023-04-09T04:12:35.861Z,11.88
2023-04-09T04:15:29.850Z,11.65
2023-04-09T04:18:15.753Z,11.05
2023-04-09T04:21:04.111Z,14.68
2023-04-09T04:23:50.884Z,8.43
2023-04-09T04:26:41.145Z,16.05
2023-04-09T04:29:28.315Z,8.07
2023-04-09T04:32:17.345Z,15.07
2023-04-09T04:35:02.614Z,9.75
2023-04-09T04:37:51.037Z,12.60
2023-04-09T04:40:37.035Z,15.55
2023-04-09T04:43:22.430Z,12.90
2023-04-09T04:46:08.757Z,18.15
2023-04-09T04:48:54.734Z,11.35
2023-04-09T04:51:41.261Z,15.05
2023-04-09T04:54:31.339Z,24.05
2023-04-09T04:57:17.315Z,8.30
2023-04-09T05:00:04.149Z,12.40
2023-04-09T05:02:49.921Z,15.23
2023-04-09T05:05:42.166Z,18.90
2023-04-09T05:08:28.869Z,11.10
2023-04-09T05:11:16.988Z,13.60
2023-04-09T05:14:06.360Z,12.77
2023-04-09T05:16:52.367Z,13.27
2023-04-09T05:19:42.160Z,12.80
2023-04-09T05:22:29.138Z,14.50
2023-04-09T05:25:16.338Z,11.13
2023-04-09T05:28:02.654Z,10.65
2023-04-09T05:33:38.327Z,13.95
2023-04-09T05:36:32.328Z,16.25
2023-04-09T05:39:18.461Z,11.55
2023-04-09T05:42:03.895Z,12.70
2023-04-09T05:44:56.874Z,15.55
2023-04-09T05:47:42.633Z,18.35
2023-04-09T05:50:51.085Z,16.40
2023-04-09T05:53:39.560Z,16.50
2023-04-09T05:56:25.268Z,14.55
2023-04-09T05:59:14.919Z,10.57
2023-04-09T06:02:00.174Z,15.95
2023-04-09T06:04:45.606Z,16.83
2023-04-09T06:07:33.880Z,18.02
2023-04-09T06:10:19.451Z,16.42
2023-04-09T06:13:06.508Z,20.80
2023-04-09T06:15:52.299Z,25.70
2023-04-09T06:18:38.162Z,21.00
2023-04-09T06:21:23.605Z,21.42
2023-04-09T06:24:09.406Z,21.48
2023-04-09T06:26:54.765Z,20.90
2023-04-09T06:29:40.065Z,17.63
2023-04-09T06:32:25.569Z,18.00
2023-04-09T06:35:11.322Z,13.98
2023-04-09T06:37:56.885Z,20.80
2023-04-09T06:40:42.302Z,20.63
2023-04-09T06:43:27.654Z,14.88
2023-04-09T06:46:14.566Z,22.17
2023-04-09T06:49:00.051Z,22.92
2023-04-09T06:51:45.353Z,18.45
2023-04-09T06:54:30.700Z,19.35
2023-04-09T06:57:16.132Z,19.40
2023-04-09T07:00:01.517Z,18.65
2023-04-09T07:02:47.289Z,18.42
2023-04-09T07:05:33.272Z,26.13
2023-04-09T07:08:19.122Z,26.23
2023-04-09T07:11:04.502Z,20.00
2023-04-09T07:13:49.747Z,17.95
2023-04-09T07:16:35.720Z,21.50
2023-04-09T07:19:21.188Z,30.08
2023-04-09T07:22:06.511Z,29.90
2023-04-09T07:24:55.174Z,29.42
2023-04-09T07:27:40.767Z,23.50
2023-04-09T07:30:26.590Z,17.02
2023-04-09T07:33:12.632Z,16.67
2023-04-09T07:35:57.881Z,16.80
2023-04-09T07:38:43.251Z,24.38
2023-04-09T07:41:28.446Z,19.23
2023-04-09T07:44:14.164Z,20.33
2023-04-09T07:46:59.875Z,26.10
2023-04-09T07:49:45.086Z,25.27
2023-04-09T07:52:30.658Z,18.65
2023-04-09T07:55:17.438Z,21.58
2023-04-09T07:58:05.950Z,20.33
2023-04-09T08:00:51.632Z,28.48
2023-04-09T08:03:37.365Z,29.17
2023-04-09T08:06:23.113Z,26.63
2023-04-09T08:09:08.557Z,19.88
2023-04-09T08:11:54.520Z,24.42
2023-04-09T08:14:39.783Z,22.52
2023-04-09T08:17:25.093Z,30.20
2023-04-09T08:20:11.374Z,28.02
2023-04-09T08:22:57.640Z,32.90
2023-04-09T08:25:43.340Z,34.28
2023-04-09T08:28:28.993Z,21.85
2023-04-09T08:31:14.401Z,27.67
2023-04-09T08:34:00.163Z,28.35
2023-04-09T08:36:46.655Z,25.52
2023-04-09T08:39:32.806Z,26.17
2023-04-09T08:42:19.678Z,30.08
2023-04-09T08:45:05.505Z,30.13
2023-04-09T08:47:51.829Z,29.63
2023-04-09T08:50:37.502Z,24.65
2023-04-09T08:53:23.674Z,28.73
2023-04-09T08:56:09.006Z,30.40
2023-04-09T08:58:56.626Z,31.15
2023-04-09T09:01:42.383Z,18.77
2023-04-09T09:04:45.405Z,19.35
2023-04-09T09:07:32.680Z,20.08
2023-04-09T09:10:18.265Z,20.77
2023-04-09T09:13:16.764Z,27.58
2023-04-09T09:16:16.136Z,23.48
2023-04-09T09:19:03.295Z,26.58
2023-04-09T09:22:09.224Z,22.98
2023-04-09T09:24:54.854Z,27.05
2023-04-09T09:27:41.079Z,24.35
2023-04-09T09:30:27.642Z,21.00
2023-04-09T09:33:13.394Z,23.10
2023-04-09T09:35:58.764Z,28.85
2023-04-09T09:38:54.882Z,26.75
2023-04-09T09:41:44.020Z,25.00
2023-04-09T09:44:33.856Z,27.35
2023-04-09T09:47:20.724Z,20.02
2023-04-09T09:50:06.742Z,26.42
2023-04-09T09:53:04.098Z,23.83
2023-04-09T09:55:52.474Z,29.57
2023-04-09T09:58:42.018Z,21.88
2023-04-09T10:01:28.325Z,22.80
2023-04-09T10:04:20.104Z,19.50
2023-04-09T10:07:07.637Z,19.00
2023-04-09T10:09:56.475Z,21.55
2023-04-09T10:12:43.933Z,22.52
2023-04-09T10:15:30.049Z,25.63
2023-04-09T10:18:17.934Z,24.15
2023-04-09T10:21:22.965Z,29.13
2023-04-09T10:24:09.223Z,21.90
2023-04-09T10:26:55.633Z,20.50
2023-04-09T10:29:46.909Z,19.00
2023-04-09T10:32:36.297Z,22.58
2023-04-09T10:35:28.443Z,24.00
2023-04-09T10:38:15.530Z,24.77
2023-04-09T10:41:12.859Z,21.30
2023-04-09T10:43:58.251Z,21.00
2023-04-09T10:46:45.968Z,24.55
2023-04-09T10:49:40.409Z,18.48
2023-04-09T10:52:30.400Z,26.17
2023-04-09T10:55:38.727Z,21.35
2023-04-09T10:58:24.273Z,25.77
2023-04-09T11:01:09.581Z,26.35
2023-04-09T11:04:17.176Z,25.35
2023-04-09T11:07:06.104Z,15.35
2023-04-09T11:09:51.521Z,19.13
2023-04-09T11:12:36.827Z,25.35
2023-04-09T11:15:22.417Z,28.10
2023-04-09T11:18:09.875Z,30.48
2023-04-09T11:21:01.410Z,24.80
2023-04-09T11:23:53.753Z,28.10
2023-04-09T11:26:39.453Z,26.75
2023-04-09T11:29:25.284Z,24.75
2023-04-09T11:32:12.767Z,21.05
2023-04-09T11:34:58.298Z,24.45
2023-04-09T11:37:45.116Z,27.85
2023-04-09T11:40:30.264Z,27.77
2023-04-09T11:43:16.714Z,23.00
2023-04-09T11:46:02.471Z,25.65
2023-04-09T11:48:49.124Z,24.67
2023-04-09T11:51:35.762Z,56.28
2023-04-09T11:54:21.412Z,25.50
2023-04-09T11:57:06.902Z,27.08
2023-04-09T11:59:52.545Z,23.42
2023-04-09T12:02:49.393Z,26.13
2023-04-09T12:05:35.855Z,25.33
2023-04-09T12:08:27.246Z,35.50
2023-04-09T12:11:15.424Z,23.52
2023-04-09T12:14:05.740Z,21.20
2023-04-09T12:16:54.458Z,28.65
2023-04-09T12:19:40.442Z,42.28
2023-04-09T12:22:26.500Z,22.48
2023-04-09T12:25:12.367Z,24.45
2023-04-09T12:27:59.095Z,25.15
2023-04-09T12:30:45.333Z,24.95
2023-04-09T12:33:32.437Z,31.10
2023-04-09T12:36:18.005Z,24.00
2023-04-09T12:39:04.084Z,26.58
2023-04-09T12:41:49.825Z,26.92
2023-04-09T12:44:35.309Z,24.23
2023-04-09T12:47:21.118Z,30.13
2023-04-09T12:50:08.415Z,27.42
2023-04-09T12:52:53.922Z,23.92
2023-04-09T12:55:41.491Z,20.42
2023-04-09T12:58:28.546Z,24.50
2023-04-09T13:01:14.531Z,25.80
2023-04-09T13:04:00.481Z,22.50
2023-04-09T13:06:46.246Z,30.75
2023-04-09T13:09:31.751Z,25.10
2023-04-09T13:12:17.985Z,35.25
2023-04-09T13:15:03.775Z,24.77
2023-04-09T13:17:49.493Z,27.60
2023-04-09T13:20:35.754Z,25.73
2023-04-09T13:23:21.293Z,15.48
2023-04-09T13:26:07.144Z,23.35
2023-04-09T13:28:53.593Z,20.50
2023-04-09T13:31:39.618Z,23.38
2023-04-09T13:34:25.412Z,22.80
2023-04-09T13:37:10.840Z,30.42
2023-04-09T13:39:56.597Z,22.40
2023-04-09T13:42:43.132Z,21.30
2023-04-09T13:45:28.722Z,26.93
2023-04-09T13:48:15.597Z,26.38
2023-04-09T13:51:01.130Z,23.67
2023-04-09T13:53:46.561Z,15.75
2023-04-09T13:56:32.090Z,22.83
2023-04-09T13:59:17.397Z,20.88
2023-04-09T14:02:03.091Z,30.25
2023-04-09T14:04:48.699Z,22.30
2023-04-09T14:07:33.948Z,32.90
2023-04-09T14:10:19.164Z,43.35
2023-04-09T14:13:06.668Z,22.17
2023-04-09T14:15:52.179Z,19.42
2023-04-09T14:18:37.347Z,20.13
2023-04-09T14:21:22.860Z,25.38
2023-04-09T14:24:08.656Z,24.35
2023-04-09T14:26:53.838Z,17.42
2023-04-09T14:29:39.695Z,20.35
2023-04-09T14:32:26.543Z,17.83
2023-04-09T14:35:12.014Z,17.73
2023-04-09T14:37:57.501Z,16.75
2023-04-09T14:40:43.107Z,21.73
2023-04-09T14:43:28.878Z,20.17
2023-04-09T14:46:14.366Z,48.20
2023-04-09T14:48:59.698Z,43.65
2023-04-09T14:51:45.330Z,30.20
2023-04-09T14:54:31.456Z,19.30
2023-04-09T14:57:17.208Z,14.45
2023-04-09T15:00:03.027Z,21.85
2023-04-09T15:02:48.997Z,26.05
2023-04-09T15:05:34.376Z,26.42
2023-04-09T15:08:19.773Z,21.58
2023-04-09T15:11:05.321Z,36.75
2023-04-09T15:13:51.957Z,31.48
2023-04-09T15:16:37.647Z,25.23
2023-04-09T15:19:23.567Z,30.95
2023-04-09T15:22:08.551Z,144.20
2023-04-09T15:24:54.278Z,587.10
2023-04-09T15:27:40.045Z,940.33
2023-04-09T15:30:25.774Z,672.95
2023-04-09T15:33:12.861Z,553.08
2023-04-09T15:35:59.256Z,99.45
2023-04-09T15:38:44.413Z,102.93
2023-04-09T15:41:32.215Z,41.65
2023-04-09T15:44:17.762Z,32.58
2023-04-09T15:47:03.097Z,85.57
2023-04-09T15:49:48.522Z,33.50
2023-04-09T15:52:33.818Z,22.70
2023-04-09T15:55:19.082Z,21.30
2023-04-09T15:58:04.353Z,20.00
2023-04-09T16:00:51.527Z,24.23
2023-04-09T16:06:26.435Z,22.52
2023-04-09T16:09:11.835Z,18.73
2023-04-09T16:11:57.549Z,19.98
2023-04-09T16:14:43.338Z,21.23
2023-04-09T16:17:28.852Z,18.10
2023-04-09T16:20:14.196Z,14.15
2023-04-09T16:22:59.484Z,24.55
2023-04-09T16:25:45.035Z,11.43
2023-04-09T16:28:30.790Z,12.35
2023-04-09T16:31:16.460Z,13.75
2023-04-09T16:34:01.670Z,32.33
2023-04-09T16:36:47.011Z,25.90
2023-04-09T16:39:32.566Z,28.08
2023-04-09T16:42:18.272Z,28.67
2023-04-09T16:45:04.747Z,26.00
2023-04-09T16:47:53.805Z,14.75
2023-04-09T16:50:40.025Z,12.27
2023-04-09T16:53:25.759Z,13.85
2023-04-09T16:56:11.470Z,13.82
2023-04-09T16:58:57.095Z,13.63
2023-04-09T17:01:42.700Z,13.27
2023-04-09T17:04:28.342Z,21.67
2023-04-09T17:07:15.035Z,16.33
2023-04-09T17:10:00.502Z,11.73
2023-04-09T17:12:46.150Z,16.73
2023-04-09T17:15:31.994Z,14.45
2023-04-09T17:18:18.209Z,13.60
2023-04-09T17:21:04.444Z,17.00
2023-04-09T17:23:49.829Z,13.82
2023-04-09T17:26:35.580Z,15.55
2023-04-09T17:29:21.379Z,15.93
2023-04-09T17:32:06.959Z,17.75
2023-04-09T17:34:52.548Z,18.75
2023-04-09T17:37:38.715Z,14.65
2023-04-09T17:40:24.120Z,33.30
2023-04-09T17:43:09.718Z,16.77
2023-04-09T17:45:55.115Z,24.60
2023-04-09T17:48:40.988Z,22.90
2023-04-09T17:51:26.984Z,32.03
2023-04-09T17:54:13.389Z,30.75
2023-04-09T17:56:58.678Z,22.58
2023-04-09T17:59:44.147Z,21.38
2023-04-09T18:02:29.856Z,21.30
2023-04-09T18:05:15.778Z,16.58
2023-04-09T18:08:04.303Z,19.00
2023-04-09T18:11:05.086Z,23.67
2023-04-09T18:13:57.264Z,54.78
2023-04-09T18:16:43.029Z,46.42
2023-04-09T18:19:28.523Z,86.40
2023-04-09T18:22:14.293Z,50.50
2023-04-09T18:25:00.125Z,22.55
2023-04-09T18:27:45.558Z,12.15
2023-04-09T18:30:31.316Z,33.70
2023-04-09T18:33:16.642Z,105.90
2023-04-09T18:36:02.736Z,51.85
2023-04-09T18:38:48.947Z,36.80
2023-04-09T18:41:34.434Z,25.20
2023-04-09T18:44:19.972Z,20.70
2023-04-09T18:47:09.051Z,21.02
2023-04-09T18:49:54.413Z,12.55
2023-04-09T18:52:39.949Z,16.20
2023-04-09T18:55:25.293Z,14.48
2023-04-09T18:58:15.299Z,12.57
2023-04-09T19:01:01.481Z,13.93
2023-04-09T19:03:47.725Z,23.10
2023-04-09T19:06:33.570Z,18.42
2023-04-09T19:09:19.268Z,22.85
2023-04-09T19:12:04.928Z,15.63
2023-04-09T19:14:50.500Z,16.98
2023-04-09T19:17:35.897Z,14.02
2023-04-09T19:20:21.476Z,14.73
2023-04-09T19:23:07.093Z,17.55
2023-04-09T19:25:55.201Z,21.00
2023-04-09T19:28:40.773Z,18.55
2023-04-09T19:31:26.492Z,28.80
2023-04-09T19:34:12.112Z,32.67
2023-04-09T19:36:57.884Z,33.08
2023-04-09T19:39:43.502Z,18.10
2023-04-09T19:42:28.883Z,21.20
2023-04-09T19:45:14.266Z,23.08
2023-04-09T19:47:59.482Z,22.35
2023-04-09T19:50:45.435Z,12.93
2023-04-09T19:53:31.023Z,16.35
2023-04-09T19:56:16.460Z,10.38
2023-04-09T19:59:02.256Z,48.53
2023-04-09T20:01:48.741Z,30.60
2023-04-09T20:04:34.522Z,18.73
2023-04-09T20:07:20.109Z,22.02
2023-04-09T20:10:06.337Z,17.00
2023-04-09T20:12:52.124Z,22.83
2023-04-09T20:15:37.772Z,13.15
2023-04-09T20:18:23.349Z,12.38
2023-04-09T20:21:09.315Z,18.75
2023-04-09T20:23:54.912Z,21.70
2023-04-09T20:26:40.277Z,18.33
2023-04-09T20:29:25.975Z,21.00
2023-04-09T20:32:11.934Z,26.02
2023-04-09T20:34:57.840Z,13.77
2023-04-09T20:37:43.115Z,14.20
2023-04-09T20:40:30.761Z,18.88
2023-04-09T20:43:16.604Z,15.43
2023-04-09T20:46:02.361Z,14.25
2023-04-09T20:48:48.265Z,14.70
2023-04-09T20:53:02.131Z,22.00
2023-04-09T20:55:47.637Z,24.17
2023-04-09T20:58:33.643Z,27.45
2023-04-09T21:01:21.831Z,18.50
2023-04-09T21:04:07.804Z,23.08
2023-04-09T21:06:53.242Z,20.00
2023-04-09T21:09:38.790Z,28.17
2023-04-09T21:12:24.371Z,13.00
2023-04-09T21:15:10.329Z,17.02
2023-04-09T21:17:55.743Z,21.13
2023-04-09T21:20:47.929Z,26.58
2023-04-09T21:23:33.532Z,25.25
2023-04-09T21:26:19.279Z,16.25
2023-04-09T21:29:05.122Z,20.27
2023-04-09T21:31:50.407Z,19.75
2023-04-09T21:34:37.272Z,17.13
2023-04-09T21:37:24.606Z,21.90
2023-04-09T21:40:10.545Z,17.92
2023-04-09T21:42:57.183Z,22.90
2023-04-09T21:45:42.706Z,19.90
2023-04-09T21:48:30.731Z,19.13
2023-04-09T21:51:16.441Z,20.27
2023-04-09T21:54:06.907Z,24.60
2023-04-09T21:56:52.527Z,18.95
2023-04-09T21:59:38.337Z,22.20
2023-04-09T22:02:24.519Z,28.83
2023-04-09T22:05:10.913Z,26.08
2023-04-09T22:07:56.682Z,25.55
2023-04-09T22:10:42.877Z,23.38
2023-04-09T22:13:28.511Z,20.42
2023-04-09T22:16:14.126Z,19.90
2023-04-09T22:19:00.144Z,22.05
2023-04-09T22:21:47.484Z,21.05
2023-04-09T22:24:33.864Z,22.10
2023-04-09T22:27:19.460Z,16.42
2023-04-09T22:30:06.420Z,21.70
2023-04-09T22:32:52.512Z,20.38
2023-04-09T22:35:38.312Z,19.23
2023-04-09T22:38:24.327Z,18.67
2023-04-09T22:41:10.446Z,19.58
2023-04-09T22:43:56.433Z,19.27
2023-04-09T22:46:42.317Z,21.48
2023-04-09T22:49:27.764Z,15.60
2023-04-09T22:52:13.143Z,21.27
2023-04-09T22:54:58.866Z,23.38
2023-04-09T22:57:44.661Z,16.92
2023-04-09T23:00:30.052Z,18.05
2023-04-09T23:03:16.010Z,14.15
2023-04-09T23:06:01.548Z,17.70
2023-04-09T23:08:46.974Z,23.92
2023-04-09T23:11:32.455Z,19.10
2023-04-09T23:14:17.948Z,17.00
2023-04-09T23:17:03.760Z,22.63
2023-04-09T23:19:49.178Z,19.08
2023-04-09T23:22:35.129Z,17.60
2023-04-09T23:25:21.925Z,22.85
2023-04-09T23:28:07.268Z,18.77
2023-04-09T23:30:52.737Z,19.63
2023-04-09T23:33:38.054Z,21.10
2023-04-09T23:36:24.374Z,16.45
2023-04-09T23:39:09.856Z,17.20
2023-04-09T23:41:55.022Z,17.88
2023-04-09T23:44:40.572Z,20.95
2023-04-09T23:47:26.306Z,19.73
2023-04-09T23:50:12.095Z,15.57
2023-04-09T23:53:03.462Z,20.60
2023-04-09T23:55:50.158Z,15.18
2023-04-09T23:58:35.827Z,19.77
